createdAt,value
2023-09-03T00:00:05.238Z,100519.59
2023-09-03T00:02:40.771Z,100513.47
2023-09-03T00:05:08.343Z,100531.06
2023-09-03T00:07:35.543Z,100510.25
2023-09-03T00:10:03.089Z,100521.25
2023-09-03T00:12:31.087Z,100504.06
2023-09-03T00:14:59.576Z,100518.41
2023-09-03T00:17:27.172Z,100513.03
2023-09-03T00:19:54.345Z,100524.53
2023-09-03T00:22:21.598Z,100523.63
2023-09-03T00:24:49.318Z,100515.28
2023-09-03T00:27:16.975Z,100522.31
2023-09-03T00:29:44.105Z,100514.38
2023-09-03T00:32:11.305Z,100524.69
2023-09-03T00:34:38.593Z,100525.44
2023-09-03T00:37:06.458Z,100515.13
2023-09-03T00:39:34.158Z,100528.22
2023-09-03T00:42:01.493Z,100508.41
2023-09-03T00:44:29.235Z,100532.19
2023-09-03T00:46:56.822Z,100505.94
2023-09-03T00:49:26.129Z,100526.34
2023-09-03T00:51:54.858Z,100523.81
2023-09-03T00:54:24.996Z,100537.69
2023-09-03T00:56:54.991Z,100513.38
2023-09-03T00:59:24.200Z,100535.16
2023-09-03T01:01:53.286Z,100535.16
2023-09-03T01:04:20.603Z,100524.06
2023-09-03T01:06:52.876Z,100528.28
2023-09-03T01:09:20.918Z,100543.84
2023-09-03T01:12:30.094Z,100531.50
2023-09-03T01:15:15.787Z,100542.56
2023-09-03T01:17:49.563Z,100550.56
2023-09-03T01:20:21.215Z,100530.47
2023-09-03T01:23:04.898Z,100510.66
2023-09-03T01:25:55.234Z,100532.50
2023-09-03T01:28:32.870Z,100522.03
2023-09-03T01:31:07.392Z,100532.25
2023-09-03T01:33:35.741Z,100547.50
2023-09-03T01:36:07.506Z,100512.47
2023-09-03T01:38:35.285Z,100536.00
2023-09-03T01:41:02.855Z,100526.59
2023-09-03T01:43:31.380Z,100526.22
2023-09-03T01:46:07.843Z,100521.66
2023-09-03T01:48:53.190Z,100531.88
2023-09-03T01:51:33.156Z,100530.84
2023-09-03T01:54:10.060Z,100520.25
2023-09-03T01:56:44.570Z,100521.81
2023-09-03T01:59:15.307Z,100528.75
2023-09-03T02:01:43.911Z,100521.06
2023-09-03T02:04:11.413Z,100535.63
2023-09-03T02:06:38.966Z,100513.75
2023-09-03T02:09:06.729Z,100529.69
2023-09-03T02:11:33.924Z,100534.72
2023-09-03T02:14:01.524Z,100541.41
2023-09-03T02:16:30.200Z,100538.56
2023-09-03T02:18:57.626Z,100526.41
2023-09-03T02:21:25.420Z,100540.31
2023-09-03T02:23:52.924Z,100544.25
2023-09-03T02:26:20.241Z,100553.13
2023-09-03T02:28:47.439Z,100539.66
2023-09-03T02:31:14.612Z,100541.69
2023-09-03T02:33:41.765Z,100532.91
2023-09-03T02:36:09.427Z,100527.59
2023-09-03T02:38:36.575Z,100556.28
2023-09-03T02:41:03.904Z,100558.53
2023-09-03T02:43:31.206Z,100547.75
2023-09-03T02:46:00.307Z,100542.78
2023-09-03T02:48:27.524Z,100556.69
2023-09-03T02:50:54.918Z,100564.09
2023-09-03T02:53:22.150Z,100557.78
2023-09-03T02:55:49.714Z,100561.19
2023-09-03T02:58:17.547Z,100556.19
2023-09-03T03:00:44.737Z,100565.66
2023-09-03T03:03:13.761Z,100583.59
2023-09-03T03:05:41.086Z,100568.50
2023-09-03T03:08:09.851Z,100558.94
2023-09-03T03:10:37.144Z,100534.53
2023-09-03T03:13:04.583Z,100554.63
2023-09-03T03:15:32.081Z,100569.09
2023-09-03T03:17:59.996Z,100549.22
2023-09-03T03:20:27.369Z,100566.06
2023-09-03T03:22:54.604Z,100558.56
2023-09-03T03:25:23.920Z,100554.53
2023-09-03T03:27:51.085Z,100573.94
2023-09-03T03:30:19.300Z,100562.03
2023-09-03T03:32:46.711Z,100568.63
2023-09-03T03:35:14.109Z,100573.25
2023-09-03T03:37:41.343Z,100547.31
2023-09-03T03:40:08.905Z,100580.22
2023-09-03T03:42:37.735Z,100558.09
2023-09-03T03:45:05.723Z,100568.03
2023-09-03T03:47:33.317Z,100568.88
2023-09-03T03:50:00.590Z,100573.06
2023-09-03T03:52:27.740Z,100579.75
2023-09-03T03:54:55.127Z,100562.56
2023-09-03T03:57:22.496Z,100564.66
2023-09-03T03:59:50.390Z,100562.63
2023-09-03T04:02:18.452Z,100577.63
2023-09-03T04:04:45.726Z,100565.25
2023-09-03T04:07:12.987Z,100561.66
2023-09-03T04:09:41.389Z,100558.31
2023-09-03T04:12:08.942Z,100563.38
2023-09-03T04:14:37.174Z,100573.91
2023-09-03T04:17:05.373Z,100554.06
2023-09-03T04:19:33.075Z,100544.44
2023-09-03T04:22:01.065Z,100553.56
2023-09-03T04:24:28.461Z,100549.22
2023-09-03T04:26:55.672Z,100561.25
2023-09-03T04:29:23.485Z,100539.22
2023-09-03T04:31:50.940Z,100556.16
2023-09-03T04:34:18.282Z,100543.22
2023-09-03T04:36:45.972Z,100540.38
2023-09-03T04:39:14.027Z,100557.28
2023-09-03T04:41:42.010Z,100553.53
2023-09-03T04:44:12.443Z,100559.41
2023-09-03T04:46:43.716Z,100546.53
2023-09-03T04:49:11.972Z,100548.63
2023-09-03T04:51:39.390Z,100547.88
2023-09-03T04:54:06.917Z,100570.00
2023-09-03T04:56:34.316Z,100557.81
2023-09-03T04:59:02.400Z,100538.75
2023-09-03T05:01:29.676Z,100556.78
2023-09-03T05:04:06.645Z,100552.75
2023-09-03T05:06:34.017Z,100572.97
2023-09-03T05:09:03.280Z,100555.72
2023-09-03T05:11:30.848Z,100548.84
2023-09-03T05:13:59.121Z,100561.75
2023-09-03T05:16:28.459Z,100566.22
2023-09-03T05:18:56.280Z,100547.81
2023-09-03T05:21:24.601Z,100571.97
2023-09-03T05:23:52.327Z,100577.22
2023-09-03T05:26:19.667Z,100559.44
2023-09-03T05:28:47.121Z,100576.03
2023-09-03T05:31:14.498Z,100547.44
2023-09-03T05:33:43.085Z,100560.53
2023-09-03T05:36:11.875Z,100554.09
2023-09-03T05:38:40.496Z,100568.84
2023-09-03T05:41:07.858Z,100562.28
2023-09-03T05:43:35.254Z,100561.09
2023-09-03T05:46:03.978Z,100545.97
2023-09-03T05:48:33.008Z,100557.97
2023-09-03T05:51:05.368Z,100542.16
2023-09-03T05:53:35.832Z,100543.09
2023-09-03T05:56:08.023Z,100549.44
2023-09-03T05:58:36.755Z,100530.72
2023-09-03T06:01:08.939Z,100543.66
2023-09-03T06:03:37.526Z,100529.00
2023-09-03T06:06:05.946Z,100538.50
2023-09-03T06:08:35.575Z,100528.31
2023-09-03T06:11:03.585Z,100523.50
2023-09-03T06:13:33.030Z,100521.03
2023-09-03T06:16:00.672Z,100528.53
2023-09-03T06:18:28.197Z,100518.41
2023-09-03T06:20:55.696Z,100512.31
2023-09-03T06:23:23.089Z,100532.00
2023-09-03T06:25:52.244Z,100545.88
2023-09-03T06:28:20.041Z,100531.34
2023-09-03T06:30:47.681Z,100509.38
2023-09-03T06:33:15.172Z,100511.88
2023-09-03T06:35:42.682Z,100524.22
2023-09-03T06:38:09.925Z,100509.97
2023-09-03T06:40:37.274Z,100520.91
2023-09-03T06:43:04.822Z,100497.31
2023-09-03T06:45:33.840Z,100518.72
2023-09-03T06:48:01.528Z,100521.69
2023-09-03T06:50:29.139Z,100525.38
2023-09-03T06:52:56.530Z,100529.06
2023-09-03T06:55:23.990Z,100522.22
2023-09-03T06:57:51.118Z,100508.34
2023-09-03T07:00:18.512Z,100506.78
2023-09-03T07:02:45.829Z,100531.38
2023-09-03T07:05:13.015Z,100523.22
2023-09-03T07:07:40.200Z,100514.22
2023-09-03T07:10:07.858Z,100518.34
2023-09-03T07:12:35.191Z,100526.16
2023-09-03T07:15:02.640Z,100504.09
2023-09-03T07:17:33.142Z,100512.34
2023-09-03T07:20:00.731Z,100523.88
2023-09-03T07:22:28.099Z,100516.16
2023-09-03T07:24:55.525Z,100506.41
2023-09-03T07:27:22.781Z,100507.66
2023-09-03T07:29:54.537Z,100495.81
2023-09-03T07:32:22.934Z,100493.44
2023-09-03T07:34:54.753Z,100498.34
2023-09-03T07:37:22.045Z,100501.63
2023-09-03T07:39:49.371Z,100479.53
2023-09-03T07:42:16.797Z,100500.00
2023-09-03T07:44:44.095Z,100511.41
2023-09-03T07:47:11.492Z,100509.38
2023-09-03T07:49:38.728Z,100504.91
2023-09-03T07:52:11.058Z,100497.63
2023-09-03T07:54:38.442Z,100475.19
2023-09-03T07:57:06.197Z,100496.06
2023-09-03T07:59:33.384Z,100487.47
2023-09-03T08:02:02.229Z,100476.88
2023-09-03T08:04:30.147Z,100494.44
2023-09-03T08:06:57.692Z,100483.00
2023-09-03T08:09:25.660Z,100496.50
2023-09-03T08:11:54.172Z,100485.47
2023-09-03T08:14:21.626Z,100483.47
2023-09-03T08:16:48.931Z,100491.25
2023-09-03T08:19:16.625Z,100498.97
2023-09-03T08:21:43.815Z,100491.22
2023-09-03T08:24:11.150Z,100486.31
2023-09-03T08:26:38.796Z,100497.38
2023-09-03T08:29:06.050Z,100493.25
2023-09-03T08:31:33.521Z,100486.31
2023-09-03T08:34:01.177Z,100500.19
2023-09-03T08:36:28.273Z,100483.06
2023-09-03T08:38:55.508Z,100485.47
2023-09-03T08:41:26.684Z,100511.25
2023-09-03T08:43:58.535Z,100490.38
2023-09-03T08:46:29.897Z,100495.66
2023-09-03T08:48:58.261Z,100484.22
2023-09-03T08:51:27.677Z,100468.31
2023-09-03T08:53:58.223Z,100481.34
2023-09-03T08:56:25.913Z,100476.06
2023-09-03T08:58:54.149Z,100478.06
2023-09-03T09:01:23.401Z,100480.50
2023-09-03T09:03:55.914Z,100476.38
2023-09-03T09:06:24.484Z,100480.44
2023-09-03T09:08:52.610Z,100486.16
2023-09-03T09:11:20.874Z,100472.66
2023-09-03T09:13:59.598Z,100486.63
2023-09-03T09:16:26.942Z,100469.84
2023-09-03T09:18:56.623Z,100466.56
2023-09-03T09:21:24.056Z,100479.59
2023-09-03T09:23:51.486Z,100457.06
2023-09-03T09:26:20.552Z,100468.88
2023-09-03T09:29:08.190Z,100465.56
2023-09-03T09:31:36.877Z,100460.25
2023-09-03T09:34:14.326Z,100450.44
2023-09-03T09:36:57.897Z,100448.38
2023-09-03T09:39:26.513Z,100434.47
2023-09-03T09:42:08.446Z,100422.19
2023-09-03T09:44:35.968Z,100454.00
2023-09-03T09:47:19.541Z,100445.78
2023-09-03T09:49:47.338Z,100449.09
2023-09-03T09:52:16.217Z,100452.78
2023-09-03T09:54:44.461Z,100449.91
2023-09-03T09:57:22.253Z,100427.44
2023-09-03T10:00:01.200Z,100443.72
2023-09-03T10:02:38.608Z,100433.47
2023-09-03T10:05:11.851Z,100435.13
2023-09-03T10:07:42.278Z,100417.97
2023-09-03T10:10:10.495Z,100428.47
2023-09-03T10:12:38.119Z,100409.00
2023-09-03T10:15:05.981Z,100432.69
2023-09-03T10:17:35.745Z,100442.44
2023-09-03T10:20:05.871Z,100416.28
2023-09-03T10:22:38.154Z,100428.03
2023-09-03T10:25:09.832Z,100434.88
2023-09-03T10:27:41.209Z,100421.38
2023-09-03T10:30:12.926Z,100409.47
2023-09-03T10:32:40.533Z,100424.56
2023-09-03T10:35:09.406Z,100421.19
2023-09-03T10:37:38.822Z,100414.78
2023-09-03T10:40:26.108Z,100402.88
2023-09-03T10:42:54.870Z,100409.69
2023-09-03T10:45:22.394Z,100427.25
2023-09-03T10:48:03.824Z,100407.22
2023-09-03T10:50:51.750Z,100418.09
2023-09-03T10:53:37.943Z,100404.97
2023-09-03T10:56:15.543Z,100396.03
2023-09-03T10:59:00.171Z,100383.28
2023-09-03T11:01:31.621Z,100398.22
2023-09-03T11:04:05.638Z,100406.41
2023-09-03T11:06:34.624Z,100401.88
2023-09-03T11:09:05.463Z,100395.31
2023-09-03T11:11:38.027Z,100396.56
2023-09-03T11:14:13.342Z,100400.72
2023-09-03T11:16:41.828Z,100401.53
2023-09-03T11:19:09.422Z,100397.03
2023-09-03T11:21:38.860Z,100402.31
2023-09-03T11:24:18.432Z,100399.09
2023-09-03T11:26:46.616Z,100386.06
2023-09-03T11:29:25.229Z,100383.44
2023-09-03T11:31:52.928Z,100389.56
2023-09-03T11:34:24.883Z,100376.88
2023-09-03T11:36:52.794Z,100364.97
2023-09-03T11:39:20.205Z,100377.66
2023-09-03T11:41:48.101Z,100362.47
2023-09-03T11:44:16.056Z,100360.75
2023-09-03T11:46:59.070Z,100374.03
2023-09-03T11:49:26.964Z,100353.97
2023-09-03T11:51:55.277Z,100352.34
2023-09-03T11:54:28.995Z,100357.50
2023-09-03T11:57:00.856Z,100342.00
2023-09-03T11:59:28.280Z,100357.88
2023-09-03T12:01:55.988Z,100336.28
2023-09-03T12:04:23.625Z,100335.09
2023-09-03T12:06:51.163Z,100342.00
2023-09-03T12:09:24.056Z,100348.44
2023-09-03T12:11:52.132Z,100330.13
2023-09-03T12:14:32.959Z,100346.88
2023-09-03T12:17:00.432Z,100326.44
2023-09-03T12:19:43.636Z,100326.69
2023-09-03T12:22:11.088Z,100311.59
2023-09-03T12:24:38.496Z,100299.75
2023-09-03T12:27:06.823Z,100311.59
2023-09-03T12:29:51.761Z,100326.66
2023-09-03T12:32:34.654Z,100313.06
2023-09-03T12:35:13.429Z,100313.88
2023-09-03T12:37:43.490Z,100315.91
2023-09-03T12:40:12.194Z,100316.69
2023-09-03T12:42:39.552Z,100315.00
2023-09-03T12:45:09.225Z,100300.69
2023-09-03T12:47:36.850Z,100307.16
2023-09-03T12:50:04.473Z,100285.78
2023-09-03T12:52:31.800Z,100280.47
2023-09-03T12:54:59.083Z,100305.75
2023-09-03T12:57:28.101Z,100294.75
2023-09-03T12:59:55.377Z,100298.00
2023-09-03T13:02:22.703Z,100288.56
2023-09-03T13:04:49.901Z,100278.75
2023-09-03T13:07:17.495Z,100294.09
2023-09-03T13:09:44.733Z,100284.66
2023-09-03T13:12:12.476Z,100286.28
2023-09-03T13:14:39.652Z,100288.00
2023-09-03T13:17:06.811Z,100285.19
2023-09-03T13:19:34.111Z,100291.38
2023-09-03T13:22:01.328Z,100301.00
2023-09-03T13:24:29.115Z,100311.25
2023-09-03T13:26:56.214Z,100292.56
2023-09-03T13:29:23.646Z,100292.91
2023-09-03T13:31:50.990Z,100288.94
2023-09-03T13:34:18.504Z,100309.28
2023-09-03T13:36:48.017Z,100302.63
2023-09-03T13:39:16.951Z,100302.78
2023-09-03T13:41:44.188Z,100298.66
2023-09-03T13:44:11.348Z,100310.78
2023-09-03T13:46:38.794Z,100302.97
2023-09-03T13:49:06.175Z,100311.59
2023-09-03T13:51:33.590Z,100299.09
2023-09-03T13:54:01.231Z,100304.78
2023-09-03T13:56:28.878Z,100315.38
2023-09-03T13:58:58.791Z,100315.91
2023-09-03T14:01:26.082Z,100287.38
2023-09-03T14:03:53.518Z,100312.59
2023-09-03T14:06:20.775Z,100307.66
2023-09-03T14:08:48.987Z,100303.16
2023-09-03T14:11:16.514Z,100296.25
2023-09-03T14:13:45.924Z,100293.81
2023-09-03T14:16:19.640Z,100303.25
2023-09-03T14:18:47.246Z,100293.00
2023-09-03T14:21:14.879Z,100309.38
2023-09-03T14:23:42.077Z,100297.88
2023-09-03T14:26:17.278Z,100294.75
2023-09-03T14:28:45.921Z,100301.25
2023-09-03T14:31:13.481Z,100291.91
2023-09-03T14:33:40.996Z,100302.06
2023-09-03T14:36:08.340Z,100302.88
2023-09-03T14:38:35.639Z,100278.91
2023-09-03T14:41:02.872Z,100293.94
2023-09-03T14:43:30.458Z,100274.34
2023-09-03T14:46:01.551Z,100291.47
2023-09-03T14:48:29.525Z,100277.53
2023-09-03T14:50:57.050Z,100271.84
2023-09-03T14:53:24.370Z,100288.59
2023-09-03T14:55:51.817Z,100286.97
2023-09-03T14:58:19.388Z,100273.56
2023-09-03T15:00:48.342Z,100275.59
2023-09-03T15:03:16.569Z,100287.09
2023-09-03T15:05:44.236Z,100285.44
2023-09-03T15:08:12.765Z,100273.19
2023-09-03T15:10:41.013Z,100253.19
2023-09-03T15:13:08.300Z,100274.00
2023-09-03T15:15:38.957Z,100280.56
2023-09-03T15:18:09.993Z,100291.19
2023-09-03T15:20:37.388Z,100272.75
2023-09-03T15:23:04.824Z,100267.13
2023-09-03T15:25:32.280Z,100271.19
2023-09-03T15:27:59.390Z,100273.69
2023-09-03T15:30:29.359Z,100269.59
2023-09-03T15:32:59.143Z,100287.19
2023-09-03T15:35:27.745Z,100294.19
2023-09-03T15:37:55.004Z,100274.66
2023-09-03T15:40:22.471Z,100263.38
2023-09-03T15:42:49.831Z,100282.09
2023-09-03T15:45:17.578Z,100254.50
2023-09-03T15:47:44.767Z,100285.88
2023-09-03T15:50:12.037Z,100266.75
2023-09-03T15:52:39.275Z,100287.16
2023-09-03T15:55:07.524Z,100271.72
2023-09-03T15:57:34.861Z,100286.84
2023-09-03T16:00:04.440Z,100281.59
2023-09-03T16:02:34.670Z,100286.16
2023-09-03T16:05:04.019Z,100291.09
2023-09-03T16:07:31.650Z,100291.47
2023-09-03T16:09:58.847Z,100292.34
2023-09-03T16:12:28.773Z,100284.25
2023-09-03T16:14:56.592Z,100293.28
2023-09-03T16:17:24.466Z,100296.91
2023-09-03T16:19:52.282Z,100298.25
2023-09-03T16:22:20.971Z,100308.50
2023-09-03T16:24:49.081Z,100295.50
2023-09-03T16:27:17.247Z,100302.38
2023-09-03T16:29:51.773Z,100309.78
2023-09-03T16:32:19.312Z,100293.94
2023-09-03T16:34:51.419Z,100298.50
2023-09-03T16:37:23.141Z,100287.53
2023-09-03T16:39:51.468Z,100297.34
2023-09-03T16:42:18.770Z,100314.91
2023-09-03T16:44:46.496Z,100319.88
2023-09-03T16:47:13.663Z,100297.00
2023-09-03T16:49:40.990Z,100302.81
2023-09-03T16:52:08.793Z,100309.34
2023-09-03T16:54:38.845Z,100304.91
2023-09-03T16:57:06.084Z,100302.03
2023-09-03T16:59:33.341Z,100297.16
2023-09-03T17:02:01.641Z,100292.66
2023-09-03T17:04:28.955Z,100303.31
2023-09-03T17:06:57.134Z,100295.13
2023-09-03T17:09:24.365Z,100284.16
2023-09-03T17:11:53.093Z,100289.00
2023-09-03T17:14:20.370Z,100271.91
2023-09-03T17:16:47.920Z,100282.16
2023-09-03T17:19:15.235Z,100288.28
2023-09-03T17:21:42.904Z,100281.81
2023-09-03T17:24:10.483Z,100285.94
2023-09-03T17:26:37.646Z,100273.75
2023-09-03T17:29:11.071Z,100293.78
2023-09-03T17:31:38.450Z,100287.25
2023-09-03T17:34:05.950Z,100283.59
2023-09-03T17:36:33.823Z,100275.44
2023-09-03T17:39:02.121Z,100258.38
2023-09-03T17:41:29.627Z,100268.53
2023-09-03T17:43:57.040Z,100250.63
2023-09-03T17:46:24.508Z,100252.25
2023-09-03T17:48:51.950Z,100239.97
2023-09-03T17:51:19.135Z,100254.28
2023-09-03T17:53:46.363Z,100255.97
2023-09-03T17:56:13.715Z,100256.38
2023-09-03T17:58:41.079Z,100240.13
2023-09-03T18:01:08.426Z,100213.25
2023-09-03T18:03:36.188Z,100236.47
2023-09-03T18:06:11.697Z,100243.03
2023-09-03T18:08:40.168Z,100227.50
2023-09-03T18:11:18.962Z,100228.44
2023-09-03T18:13:46.822Z,100209.72
2023-09-03T18:16:15.673Z,100220.38
2023-09-03T18:18:45.618Z,100228.19
2023-09-03T18:21:16.405Z,100217.97
2023-09-03T18:23:47.318Z,100220.00
2023-09-03T18:26:16.174Z,100177.59
2023-09-03T18:28:47.524Z,100204.94
2023-09-03T18:31:15.790Z,100213.44
2023-09-03T18:33:43.234Z,100195.13
2023-09-03T18:36:10.622Z,100197.56
2023-09-03T18:38:37.862Z,100182.91
2023-09-03T18:41:05.389Z,100186.16
2023-09-03T18:43:32.973Z,100189.03
2023-09-03T18:46:02.049Z,100166.25
2023-09-03T18:48:29.543Z,100171.50
2023-09-03T18:51:01.483Z,100172.72
2023-09-03T18:53:28.907Z,100157.69
2023-09-03T18:55:56.119Z,100175.59
2023-09-03T18:58:23.872Z,100174.44
2023-09-03T19:00:51.086Z,100156.09
2023-09-03T19:03:18.536Z,100157.69
2023-09-03T19:05:49.263Z,100172.41
2023-09-03T19:08:17.456Z,100139.81
2023-09-03T19:10:45.009Z,100162.69
2023-09-03T19:13:12.301Z,100157.78
2023-09-03T19:15:40.272Z,100155.34
2023-09-03T19:18:14.250Z,100139.84
2023-09-03T19:20:41.709Z,100143.09
2023-09-03T19:23:11.631Z,100156.97
2023-09-03T19:25:43.558Z,100141.91
2023-09-03T19:28:16.147Z,100123.97
2023-09-03T19:30:44.689Z,100143.56
2023-09-03T19:33:12.409Z,100121.16
2023-09-03T19:35:39.805Z,100122.81
2023-09-03T19:38:07.705Z,100141.59
2023-09-03T19:40:35.652Z,100097.56
2023-09-03T19:43:03.062Z,100113.03
2023-09-03T19:45:30.174Z,100110.19
2023-09-03T19:48:20.809Z,100141.59
2023-09-03T19:50:49.194Z,100138.34
2023-09-03T19:53:16.587Z,100124.13
2023-09-03T19:55:44.266Z,100135.13
2023-09-03T19:58:15.181Z,100145.75
2023-09-03T20:00:45.153Z,100130.66
2023-09-03T20:03:13.590Z,100144.94
2023-09-03T20:05:42.294Z,100147.81
2023-09-03T20:08:09.829Z,100129.44
2023-09-03T20:10:38.519Z,100128.66
2023-09-03T20:13:08.788Z,100129.88
2023-09-03T20:15:39.701Z,100117.25
2023-09-03T20:18:07.576Z,100118.06
2023-09-03T20:20:36.742Z,100113.19
2023-09-03T20:23:05.129Z,100117.66
2023-09-03T20:25:32.450Z,100102.56
2023-09-03T20:27:59.837Z,100102.56
2023-09-03T20:30:27.991Z,100110.72
2023-09-03T20:32:55.767Z,100103.34
2023-09-03T20:35:23.977Z,100108.69
2023-09-03T20:37:52.194Z,100109.47
2023-09-03T20:40:20.053Z,100085.00
2023-09-03T20:42:47.204Z,100094.38
2023-09-03T20:45:23.220Z,100106.59
2023-09-03T20:47:51.501Z,100108.66
2023-09-03T20:50:19.360Z,100114.75
2023-09-03T20:52:46.606Z,100080.94
2023-09-03T20:55:13.906Z,100087.84
2023-09-03T20:57:43.290Z,100093.53
2023-09-03T21:00:11.635Z,100101.69
2023-09-03T21:02:42.364Z,100095.56
2023-09-03T21:05:11.545Z,100087.00
2023-09-03T21:07:38.771Z,100107.78
2023-09-03T21:10:07.280Z,100091.50
2023-09-03T21:12:35.534Z,100101.66
2023-09-03T21:15:02.753Z,100093.53
2023-09-03T21:17:32.981Z,100109.84
2023-09-03T21:20:00.373Z,100104.97
2023-09-03T21:22:27.734Z,100102.53
2023-09-03T21:24:54.910Z,100083.78
2023-09-03T21:27:22.127Z,100109.44
2023-09-03T21:29:49.710Z,100102.13
2023-09-03T21:32:17.556Z,100097.22
2023-09-03T21:34:44.893Z,100092.31
2023-09-03T21:37:12.066Z,100090.28
2023-09-03T21:39:39.239Z,100103.75
2023-09-03T21:42:08.654Z,100080.50
2023-09-03T21:44:35.862Z,100099.25
2023-09-03T21:47:03.261Z,100096.00
2023-09-03T21:49:31.221Z,100083.34
2023-09-03T21:51:58.779Z,100091.09
2023-09-03T21:54:27.357Z,100100.06
2023-09-03T21:56:55.641Z,100091.91
2023-09-03T21:59:23.292Z,100107.00
2023-09-03T22:01:50.770Z,100094.75
2023-09-03T22:04:19.149Z,100117.97
2023-09-03T22:06:47.704Z,100078.00
2023-09-03T22:09:14.895Z,100082.91
2023-09-03T22:11:42.245Z,100089.81
2023-09-03T22:14:09.525Z,100094.31
2023-09-03T22:16:36.716Z,100087.78
2023-09-03T22:19:12.954Z,100090.13
2023-09-03T22:21:51.959Z,100056.31
2023-09-03T22:24:19.094Z,100064.47
2023-09-03T22:26:46.413Z,100058.75
2023-09-03T22:29:14.244Z,100042.81
2023-09-03T22:31:41.666Z,100046.91
2023-09-03T22:34:09.211Z,100050.16
2023-09-03T22:36:36.445Z,100055.47
2023-09-03T22:39:04.298Z,100051.38
2023-09-03T22:41:31.421Z,100066.84
2023-09-03T22:43:59.969Z,100050.56
2023-09-03T22:46:27.313Z,100047.28
2023-09-03T22:48:54.762Z,100029.78
2023-09-03T22:51:21.892Z,100038.78
2023-09-03T22:53:49.024Z,100032.28
2023-09-03T22:56:16.569Z,100026.59
2023-09-03T22:58:44.196Z,100016.03
2023-09-03T23:01:12.610Z,100020.91
2023-09-03T23:03:40.114Z,100021.72
2023-09-03T23:06:07.584Z,100008.72
2023-09-03T23:08:35.529Z,100037.72
2023-09-03T23:11:05.549Z,100023.84
2023-09-03T23:13:32.768Z,100025.47
2023-09-03T23:16:00.140Z,100050.34
2023-09-03T23:18:29.615Z,100036.91
2023-09-03T23:20:57.444Z,100025.91
2023-09-03T23:23:26.542Z,100013.69
2023-09-03T23:25:53.806Z,100010.81
2023-09-03T23:28:21.821Z,100017.34
2023-09-03T23:30:50.258Z,100010.41
2023-09-03T23:33:17.525Z,100020.63
2023-09-03T23:35:44.905Z,100030.38
2023-09-03T23:38:12.082Z,100036.47
2023-09-03T23:40:39.750Z,100025.47
2023-09-03T23:43:07.026Z,100034.03
2023-09-03T23:45:34.505Z,100045.06
2023-09-03T23:48:01.666Z,100034.88
2023-09-03T23:50:29.390Z,100042.59
2023-09-03T23:52:56.658Z,100023.44
2023-09-03T23:55:23.886Z,100027.94
2023-09-03T23:57:51.146Z,100030.00
